sensor_id;sensor_type;location;lat;lon;timestamp;pressure;altitude;pressure_sealevel;temperature;humidity
51083;BME280;37131;42.694;23.350;2023-02-21T00:01:26;95889.78;;;4.37;68.58
51083;BME280;37131;42.694;23.350;2023-02-21T00:04:10;95890.91;;;4.66;67.17
51083;BME280;37131;42.694;23.350;2023-02-21T00:06:54;95891.72;;;4.67;67.64
51083;BME280;37131;42.694;23.350;2023-02-21T00:09:38;95885.09;;;4.72;66.83
51083;BME280;37131;42.694;23.350;2023-02-21T00:12:22;95884.78;;;4.90;66.54
51083;BME280;37131;42.694;23.350;2023-02-21T00:15:06;95890.31;;;4.56;67.69
51083;BME280;37131;42.694;23.350;2023-02-21T00:17:51;95891.66;;;4.75;67.32
51083;BME280;37131;42.694;23.350;2023-02-21T00:20:34;95895.34;;;4.81;66.27
51083;BME280;37131;42.694;23.350;2023-02-21T00:23:18;95896.34;;;4.48;68.11
51083;BME280;37131;42.694;23.350;2023-02-21T00:26:02;95889.72;;;4.77;66.73
51083;BME280;37131;42.694;23.350;2023-02-21T00:28:46;95883.25;;;4.50;67.64
51083;BME280;37131;42.694;23.350;2023-02-21T00:31:30;95885.84;;;4.50;67.91
51083;BME280;37131;42.694;23.350;2023-02-21T00:34:14;95876.50;;;4.49;68.12
51083;BME280;37131;42.694;23.350;2023-02-21T00:36:58;95887.25;;;4.29;68.62
51083;BME280;37131;42.694;23.350;2023-02-21T00:39:42;95888.28;;;4.12;70.35
51083;BME280;37131;42.694;23.350;2023-02-21T00:42:26;95841.69;;;3.74;70.42
51083;BME280;37131;42.694;23.350;2023-02-21T00:45:10;95882.81;;;4.07;70.97
51083;BME280;37131;42.694;23.350;2023-02-21T00:47:54;95876.13;;;4.29;69.49
51083;BME280;37131;42.694;23.350;2023-02-21T00:50:38;95866.03;;;4.42;68.74
51083;BME280;37131;42.694;23.350;2023-02-21T00:53:25;95850.44;;;4.59;67.93
51083;BME280;37131;42.694;23.350;2023-02-21T00:56:09;95850.69;;;4.49;68.90
51083;BME280;37131;42.694;23.350;2023-02-21T00:58:53;95847.47;;;4.70;68.04
51083;BME280;37131;42.694;23.350;2023-02-21T01:01:37;95851.66;;;4.48;69.07
51083;BME280;37131;42.694;23.350;2023-02-21T01:04:21;95830.81;;;4.49;69.23
51083;BME280;37131;42.694;23.350;2023-02-21T01:07:04;95836.78;;;4.73;68.35
51083;BME280;37131;42.694;23.350;2023-02-21T01:09:48;95821.13;;;4.74;67.39
51083;BME280;37131;42.694;23.350;2023-02-21T01:12:32;95829.72;;;4.90;67.08
51083;BME280;37131;42.694;23.350;2023-02-21T01:15:16;95828.75;;;4.91;67.04
51083;BME280;37131;42.694;23.350;2023-02-21T01:18:00;95812.97;;;4.86;66.82
51083;BME280;37131;42.694;23.350;2023-02-21T01:20:44;95813.06;;;4.92;66.91
51083;BME280;37131;42.694;23.350;2023-02-21T01:23:28;95815.34;;;4.72;67.31
51083;BME280;37131;42.694;23.350;2023-02-21T01:26:12;95798.34;;;4.93;66.50
51083;BME280;37131;42.694;23.350;2023-02-21T01:28:55;95805.66;;;4.66;67.42
51083;BME280;37131;42.694;23.350;2023-02-21T01:31:40;95796.81;;;4.84;66.79
51083;BME280;37131;42.694;23.350;2023-02-21T01:34:23;95796.94;;;4.90;66.46
51083;BME280;37131;42.694;23.350;2023-02-21T01:37:07;95794.44;;;4.97;65.98
51083;BME280;37131;42.694;23.350;2023-02-21T01:39:51;95798.88;;;4.88;66.71
51083;BME280;37131;42.694;23.350;2023-02-21T01:42:36;95804.47;;;4.77;66.73
51083;BME280;37131;42.694;23.350;2023-02-21T01:48:10;95803.69;;;4.53;68.16
51083;BME280;37131;42.694;23.350;2023-02-21T01:50:57;95793.50;;;4.75;67.03
51083;BME280;37131;42.694;23.350;2023-02-21T01:53:43;95794.25;;;4.37;68.31
51083;BME280;37131;42.694;23.350;2023-02-21T01:56:28;95793.63;;;4.59;68.13
51083;BME280;37131;42.694;23.350;2023-02-21T01:59:12;95780.31;;;4.70;67.41
51083;BME280;37131;42.694;23.350;2023-02-21T02:05:13;95769.34;;;4.68;67.18
51083;BME280;37131;42.694;23.350;2023-02-21T02:07:57;95773.88;;;4.66;67.32
51083;BME280;37131;42.694;23.350;2023-02-21T02:10:43;95764.78;;;4.55;67.57
51083;BME280;37131;42.694;23.350;2023-02-21T02:16:07;95758.97;;;4.53;68.54
51083;BME280;37131;42.694;23.350;2023-02-21T02:21:43;95759.44;;;4.56;68.17
51083;BME280;37131;42.694;23.350;2023-02-21T02:35:02;95742.84;;;4.74;67.38
51083;BME280;37131;42.694;23.350;2023-02-21T02:37:51;95754.22;;;4.80;67.47
51083;BME280;37131;42.694;23.350;2023-02-21T02:43:15;95747.78;;;4.61;67.73
51083;BME280;37131;42.694;23.350;2023-02-21T02:48:37;95727.75;;;4.63;67.50
51083;BME280;37131;42.694;23.350;2023-02-21T02:51:10;95741.00;;;4.98;66.49
51083;BME280;37131;42.694;23.350;2023-02-21T02:53:35;95745.25;;;4.76;67.12
51083;BME280;37131;42.694;23.350;2023-02-21T02:56:04;95747.00;;;4.75;67.69
51083;BME280;37131;42.694;23.350;2023-02-21T02:58:34;95746.28;;;4.81;67.45
51083;BME280;37131;42.694;23.350;2023-02-21T03:03:37;95740.44;;;4.72;67.55
51083;BME280;37131;42.694;23.350;2023-02-21T03:06:22;95749.69;;;4.82;67.48
51083;BME280;37131;42.694;23.350;2023-02-21T03:11:26;95742.09;;;4.65;67.75
51083;BME280;37131;42.694;23.350;2023-02-21T03:13:56;95744.66;;;4.50;68.54
51083;BME280;37131;42.694;23.350;2023-02-21T03:16:32;95743.06;;;4.64;67.45
51083;BME280;37131;42.694;23.350;2023-02-21T03:19:05;95747.00;;;4.75;66.51
51083;BME280;37131;42.694;23.350;2023-02-21T03:21:44;95746.66;;;4.78;66.37
51083;BME280;37131;42.694;23.350;2023-02-21T03:24:12;95741.75;;;4.68;66.68
51083;BME280;37131;42.694;23.350;2023-02-21T03:26:41;95737.50;;;4.52;67.35
51083;BME280;37131;42.694;23.350;2023-02-21T03:29:09;95740.13;;;4.67;66.83
51083;BME280;37131;42.694;23.350;2023-02-21T03:31:42;95732.97;;;4.54;67.13
51083;BME280;37131;42.694;23.350;2023-02-21T03:34:09;95727.97;;;4.53;67.38
51083;BME280;37131;42.694;23.350;2023-02-21T03:36:36;95726.47;;;4.59;67.01
51083;BME280;37131;42.694;23.350;2023-02-21T03:39:02;95739.69;;;4.41;68.11
51083;BME280;37131;42.694;23.350;2023-02-21T03:41:28;95688.88;;;3.95;68.18
51083;BME280;37131;42.694;23.350;2023-02-21T03:43:53;95740.44;;;4.26;69.09
51083;BME280;37131;42.694;23.350;2023-02-21T03:46:19;95739.09;;;4.38;67.72
51083;BME280;37131;42.694;23.350;2023-02-21T03:48:44;95739.22;;;4.37;68.08
51083;BME280;37131;42.694;23.350;2023-02-21T03:51:10;95746.34;;;4.35;68.33
51083;BME280;37131;42.694;23.350;2023-02-21T03:53:35;95753.00;;;4.52;67.17
51083;BME280;37131;42.694;23.350;2023-02-21T03:56:00;95747.97;;;4.36;68.42
51083;BME280;37131;42.694;23.350;2023-02-21T03:58:26;95740.88;;;4.53;67.67
51083;BME280;37131;42.694;23.350;2023-02-21T04:00:51;95748.50;;;4.31;68.37
51083;BME280;37131;42.694;23.350;2023-02-21T04:03:18;95752.22;;;4.52;67.61
51083;BME280;37131;42.694;23.350;2023-02-21T04:05:43;95750.44;;;4.06;69.60
51083;BME280;37131;42.694;23.350;2023-02-21T04:08:09;95750.25;;;4.08;70.09
51083;BME280;37131;42.694;23.350;2023-02-21T04:10:34;95756.34;;;4.38;68.47
51083;BME280;37131;42.694;23.350;2023-02-21T04:13:00;95753.34;;;4.26;68.69
51083;BME280;37131;42.694;23.350;2023-02-21T04:15:26;95763.81;;;4.33;68.64
51083;BME280;37131;42.694;23.350;2023-02-21T04:17:51;95762.06;;;4.25;69.13
51083;BME280;37131;42.694;23.350;2023-02-21T04:20:16;95763.09;;;4.16;70.04
51083;BME280;37131;42.694;23.350;2023-02-21T04:22:42;95767.47;;;4.15;70.01
51083;BME280;37131;42.694;23.350;2023-02-21T04:25:08;95770.31;;;4.20;69.41
51083;BME280;37131;42.694;23.350;2023-02-21T04:27:33;95772.97;;;4.35;68.19
51083;BME280;37131;42.694;23.350;2023-02-21T04:29:59;95772.88;;;4.29;68.67
51083;BME280;37131;42.694;23.350;2023-02-21T04:32:24;95752.78;;;4.39;67.76
51083;BME280;37131;42.694;23.350;2023-02-21T04:34:51;95783.22;;;4.20;68.67
51083;BME280;37131;42.694;23.350;2023-02-21T04:37:17;95774.00;;;4.26;68.53
51083;BME280;37131;42.694;23.350;2023-02-21T04:39:42;95781.06;;;4.32;68.95
51083;BME280;37131;42.694;23.350;2023-02-21T04:42:08;95782.97;;;4.38;68.02
51083;BME280;37131;42.694;23.350;2023-02-21T04:44:33;95783.59;;;4.41;67.83
51083;BME280;37131;42.694;23.350;2023-02-21T04:46:59;95773.63;;;4.37;67.85
51083;BME280;37131;42.694;23.350;2023-02-21T04:49:24;95770.13;;;4.53;67.57
51083;BME280;37131;42.694;23.350;2023-02-21T04:51:52;95770.69;;;4.41;68.05
51083;BME280;37131;42.694;23.350;2023-02-21T04:54:17;95761.38;;;4.54;67.52
51083;BME280;37131;42.694;23.350;2023-02-21T04:56:43;95757.31;;;4.60;66.81
51083;BME280;37131;42.694;23.350;2023-02-21T04:59:08;95759.84;;;4.45;67.64
51083;BME280;37131;42.694;23.350;2023-02-21T05:01:33;95754.41;;;4.40;67.05
51083;BME280;37131;42.694;23.350;2023-02-21T05:03:59;95759.72;;;4.15;67.75
51083;BME280;37131;42.694;23.350;2023-02-21T05:06:26;95751.72;;;4.02;68.72
51083;BME280;37131;42.694;23.350;2023-02-21T05:08:53;95749.16;;;4.02;68.10
51083;BME280;37131;42.694;23.350;2023-02-21T05:11:20;95753.25;;;3.88;69.79
51083;BME280;37131;42.694;23.350;2023-02-21T05:13:45;95738.00;;;4.01;69.24
51083;BME280;37131;42.694;23.350;2023-02-21T05:16:11;95748.09;;;3.88;69.75
51083;BME280;37131;42.694;23.350;2023-02-21T05:18:37;95749.41;;;4.15;68.42
51083;BME280;37131;42.694;23.350;2023-02-21T05:21:05;95746.91;;;3.99;68.98
51083;BME280;37131;42.694;23.350;2023-02-21T05:23:31;95740.75;;;4.00;68.63
51083;BME280;37131;42.694;23.350;2023-02-21T05:26:04;95747.06;;;3.66;70.19
51083;BME280;37131;42.694;23.350;2023-02-21T05:28:30;95748.16;;;3.40;71.70
51083;BME280;37131;42.694;23.350;2023-02-21T05:30:56;95744.66;;;3.16;73.10
51083;BME280;37131;42.694;23.350;2023-02-21T05:33:22;95754.94;;;3.33;72.66
51083;BME280;37131;42.694;23.350;2023-02-21T05:35:48;95751.00;;;3.45;72.77
51083;BME280;37131;42.694;23.350;2023-02-21T05:38:15;95754.94;;;3.73;71.31
51083;BME280;37131;42.694;23.350;2023-02-21T05:40:40;95745.94;;;3.68;71.68
51083;BME280;37131;42.694;23.350;2023-02-21T05:43:06;95748.25;;;3.86;70.97
51083;BME280;37131;42.694;23.350;2023-02-21T05:45:31;95762.38;;;3.67;73.20
51083;BME280;37131;42.694;23.350;2023-02-21T05:47:57;95759.25;;;3.80;72.44
51083;BME280;37131;42.694;23.350;2023-02-21T05:50:25;95751.44;;;3.97;71.35
51083;BME280;37131;42.694;23.350;2023-02-21T05:52:51;95752.53;;;4.02;71.29
51083;BME280;37131;42.694;23.350;2023-02-21T05:55:17;95766.69;;;4.07;71.34
51083;BME280;37131;42.694;23.350;2023-02-21T05:57:42;95766.09;;;4.04;70.65
51083;BME280;37131;42.694;23.350;2023-02-21T06:00:16;95770.63;;;4.26;70.43
51083;BME280;37131;42.694;23.350;2023-02-21T06:02:42;95766.78;;;4.45;69.58
51083;BME280;37131;42.694;23.350;2023-02-21T06:05:07;95770.34;;;4.67;67.87
51083;BME280;37131;42.694;23.350;2023-02-21T06:07:33;95777.56;;;4.71;67.94
51083;BME280;37131;42.694;23.350;2023-02-21T06:09:58;95781.41;;;4.76;68.21
51083;BME280;37131;42.694;23.350;2023-02-21T06:12:24;95769.59;;;4.96;67.09
51083;BME280;37131;42.694;23.350;2023-02-21T06:14:49;95776.19;;;5.14;66.16
51083;BME280;37131;42.694;23.350;2023-02-21T06:17:14;95780.44;;;4.91;66.29
51083;BME280;37131;42.694;23.350;2023-02-21T06:19:40;95777.25;;;5.04;65.95
51083;BME280;37131;42.694;23.350;2023-02-21T06:22:05;95769.81;;;5.24;65.49
51083;BME280;37131;42.694;23.350;2023-02-21T06:24:30;95776.06;;;5.30;65.11
51083;BME280;37131;42.694;23.350;2023-02-21T06:26:56;95770.78;;;5.38;64.38
51083;BME280;37131;42.694;23.350;2023-02-21T06:29:21;95773.19;;;5.40;64.66
51083;BME280;37131;42.694;23.350;2023-02-21T06:31:47;95773.34;;;5.68;62.27
51083;BME280;37131;42.694;23.350;2023-02-21T06:34:12;95769.00;;;5.69;63.39
51083;BME280;37131;42.694;23.350;2023-02-21T06:36:38;95768.88;;;5.92;62.10
51083;BME280;37131;42.694;23.350;2023-02-21T06:39:04;95761.56;;;5.95;62.53
51083;BME280;37131;42.694;23.350;2023-02-21T06:41:29;95774.06;;;5.62;61.24
51083;BME280;37131;42.694;23.350;2023-02-21T06:43:56;95788.97;;;5.90;59.93
51083;BME280;37131;42.694;23.350;2023-02-21T06:46:25;95786.69;;;6.17;60.41
51083;BME280;37131;42.694;23.350;2023-02-21T06:48:50;95786.19;;;6.06;59.60
51083;BME280;37131;42.694;23.350;2023-02-21T06:51:16;95791.63;;;6.11;59.04
51083;BME280;37131;42.694;23.350;2023-02-21T06:53:43;95774.53;;;6.32;58.39
51083;BME280;37131;42.694;23.350;2023-02-21T06:56:09;95775.81;;;6.43;58.46
51083;BME280;37131;42.694;23.350;2023-02-21T06:58:35;95779.41;;;6.63;57.90
51083;BME280;37131;42.694;23.350;2023-02-21T07:01:00;95785.25;;;6.72;57.65
51083;BME280;37131;42.694;23.350;2023-02-21T07:03:26;95776.25;;;6.96;57.95
51083;BME280;37131;42.694;23.350;2023-02-21T07:05:51;95780.25;;;7.20;56.12
51083;BME280;37131;42.694;23.350;2023-02-21T07:08:17;95779.69;;;7.25;55.50
51083;BME280;37131;42.694;23.350;2023-02-21T07:10:42;95781.47;;;7.60;54.16
51083;BME280;37131;42.694;23.350;2023-02-21T07:13:08;95780.75;;;7.79;54.29
51083;BME280;37131;42.694;23.350;2023-02-21T07:15:33;95775.22;;;7.89;53.67
51083;BME280;37131;42.694;23.350;2023-02-21T07:17:58;95779.22;;;7.92;53.90
51083;BME280;37131;42.694;23.350;2023-02-21T07:20:24;95776.19;;;7.81;53.38
51083;BME280;37131;42.694;23.350;2023-02-21T07:22:50;95774.88;;;8.05;52.58
51083;BME280;37131;42.694;23.350;2023-02-21T07:25:18;95771.00;;;7.81;55.08
51083;BME280;37131;42.694;23.350;2023-02-21T07:27:47;95763.69;;;8.05;53.65
51083;BME280;37131;42.694;23.350;2023-02-21T07:30:14;95760.50;;;8.10;52.33
51083;BME280;37131;42.694;23.350;2023-02-21T07:32:39;95751.25;;;7.94;52.80
51083;BME280;37131;42.694;23.350;2023-02-21T07:35:05;95761.88;;;7.99;52.60
51083;BME280;37131;42.694;23.350;2023-02-21T07:37:31;95742.97;;;7.70;52.79
51083;BME280;37131;42.694;23.350;2023-02-21T07:39:56;95741.13;;;8.12;52.95
51083;BME280;37131;42.694;23.350;2023-02-21T07:42:22;95740.53;;;8.23;52.38
51083;BME280;37131;42.694;23.350;2023-02-21T07:44:47;95744.59;;;8.33;52.25
51083;BME280;37131;42.694;23.350;2023-02-21T07:47:13;95731.44;;;8.48;52.15
51083;BME280;37131;42.694;23.350;2023-02-21T07:49:39;95735.81;;;8.60;52.12
51083;BME280;37131;42.694;23.350;2023-02-21T07:52:06;95729.66;;;8.68;50.90
51083;BME280;37131;42.694;23.350;2023-02-21T07:54:31;95666.41;;;8.28;51.62
51083;BME280;37131;42.694;23.350;2023-02-21T07:56:57;95731.44;;;8.48;52.25
51083;BME280;37131;42.694;23.350;2023-02-21T07:59:22;95729.63;;;8.48;51.84
51083;BME280;37131;42.694;23.350;2023-02-21T08:01:48;95726.63;;;8.51;51.26
51083;BME280;37131;42.694;23.350;2023-02-21T08:04:14;95728.44;;;8.77;50.94
51083;BME280;37131;42.694;23.350;2023-02-21T08:06:44;95722.22;;;8.85;50.62
51083;BME280;37131;42.694;23.350;2023-02-21T08:09:09;95720.22;;;8.74;51.83
51083;BME280;37131;42.694;23.350;2023-02-21T08:11:36;95721.84;;;8.82;51.29
51083;BME280;37131;42.694;23.350;2023-02-21T08:14:02;95722.22;;;8.99;50.67
51083;BME280;37131;42.694;23.350;2023-02-21T08:16:28;95711.84;;;8.92;51.08
51083;BME280;37131;42.694;23.350;2023-02-21T08:18:54;95709.59;;;9.09;50.46
51083;BME280;37131;42.694;23.350;2023-02-21T08:21:19;95718.78;;;9.18;50.19
51083;BME280;37131;42.694;23.350;2023-02-21T08:23:44;95707.19;;;9.21;49.92
51083;BME280;37131;42.694;23.350;2023-02-21T08:26:10;95701.97;;;9.27;49.46
51083;BME280;37131;42.694;23.350;2023-02-21T08:28:35;95714.94;;;9.41;50.02
51083;BME280;37131;42.694;23.350;2023-02-21T08:31:01;95696.53;;;9.42;49.32
51083;BME280;37131;42.694;23.350;2023-02-21T08:33:27;95709.88;;;9.59;49.63
51083;BME280;37131;42.694;23.350;2023-02-21T08:35:52;95699.25;;;9.61;48.85
51083;BME280;37131;42.694;23.350;2023-02-21T08:38:18;95686.22;;;9.68;48.92
51083;BME280;37131;42.694;23.350;2023-02-21T08:40:43;95695.94;;;9.86;48.44
51083;BME280;37131;42.694;23.350;2023-02-21T08:43:09;95693.31;;;9.92;48.25
51083;BME280;37131;42.694;23.350;2023-02-21T08:45:35;95694.47;;;9.96;48.39
51083;BME280;37131;42.694;23.350;2023-02-21T08:48:00;95689.59;;;9.75;48.52
51083;BME280;37131;42.694;23.350;2023-02-21T08:50:27;95672.78;;;9.71;48.57
51083;BME280;37131;42.694;23.350;2023-02-21T08:52:53;95689.66;;;10.00;48.49
51083;BME280;37131;42.694;23.350;2023-02-21T08:55:19;95685.03;;;9.63;48.45
51083;BME280;37131;42.694;23.350;2023-02-21T08:57:47;95688.88;;;9.99;48.62
51083;BME280;37131;42.694;23.350;2023-02-21T09:00:14;95686.13;;;10.19;47.61
51083;BME280;37131;42.694;23.350;2023-02-21T09:02:40;95674.19;;;10.05;48.33
51083;BME280;37131;42.694;23.350;2023-02-21T09:05:11;95678.41;;;10.06;47.79
51083;BME280;37131;42.694;23.350;2023-02-21T09:07:37;95684.28;;;10.33;46.94
51083;BME280;37131;42.694;23.350;2023-02-21T09:10:03;95677.19;;;10.41;46.73
51083;BME280;37131;42.694;23.350;2023-02-21T09:12:29;95673.47;;;10.55;47.33
51083;BME280;37131;42.694;23.350;2023-02-21T09:14:54;95655.13;;;10.43;46.87
51083;BME280;37131;42.694;23.350;2023-02-21T09:17:20;95667.38;;;10.68;46.90
51083;BME280;37131;42.694;23.350;2023-02-21T09:19:45;95670.63;;;10.63;46.95
51083;BME280;37131;42.694;23.350;2023-02-21T09:22:11;95672.03;;;10.84;45.99
51083;BME280;37131;42.694;23.350;2023-02-21T09:24:37;95649.44;;;10.97;44.90
51083;BME280;37131;42.694;23.350;2023-02-21T09:27:04;95672.16;;;11.15;45.19
51083;BME280;37131;42.694;23.350;2023-02-21T09:29:31;95663.34;;;11.28;45.01
51083;BME280;37131;42.694;23.350;2023-02-21T09:31:58;95645.81;;;11.53;44.28
51083;BME280;37131;42.694;23.350;2023-02-21T09:34:24;95646.84;;;11.83;43.91
51083;BME280;37131;42.694;23.350;2023-02-21T09:36:49;95593.38;;;11.55;44.35
51083;BME280;37131;42.694;23.350;2023-02-21T09:39:19;95648.03;;;11.50;44.64
51083;BME280;37131;42.694;23.350;2023-02-21T09:41:45;95633.44;;;11.91;44.12
51083;BME280;37131;42.694;23.350;2023-02-21T09:44:16;95629.47;;;12.19;41.75
51083;BME280;37131;42.694;23.350;2023-02-21T09:46:45;95631.31;;;12.18;42.20
51083;BME280;37131;42.694;23.350;2023-02-21T09:49:23;95623.50;;;12.42;42.42
51083;BME280;37131;42.694;23.350;2023-02-21T09:51:50;95621.34;;;12.74;41.54
51083;BME280;37131;42.694;23.350;2023-02-21T09:54:46;95625.84;;;12.20;42.54
51083;BME280;37131;42.694;23.350;2023-02-21T09:57:16;95615.69;;;12.11;43.17
51083;BME280;37131;42.694;23.350;2023-02-21T09:59:42;95618.25;;;12.42;43.53
51083;BME280;37131;42.694;23.350;2023-02-21T10:05:14;95612.06;;;13.19;40.78
51083;BME280;37131;42.694;23.350;2023-02-21T10:07:46;95603.91;;;13.56;39.48
51083;BME280;37131;42.694;23.350;2023-02-21T10:10:24;95588.50;;;13.89;39.17
51083;BME280;37131;42.694;23.350;2023-02-21T10:13:21;95589.06;;;13.91;38.51
51083;BME280;37131;42.694;23.350;2023-02-21T10:15:59;95590.63;;;13.92;38.92
51083;BME280;37131;42.694;23.350;2023-02-21T10:18:38;95586.50;;;13.96;38.45
51083;BME280;37131;42.694;23.350;2023-02-21T10:21:21;95573.09;;;14.43;36.98
51083;BME280;37131;42.694;23.350;2023-02-21T10:23:50;95564.41;;;14.60;37.25
51083;BME280;37131;42.694;23.350;2023-02-21T10:26:26;95554.56;;;15.06;36.88
51083;BME280;37131;42.694;23.350;2023-02-21T10:28:53;95552.34;;;15.20;35.82
51083;BME280;37131;42.694;23.350;2023-02-21T10:33:56;95543.34;;;15.92;34.44
51083;BME280;37131;42.694;23.350;2023-02-21T10:36:24;95542.16;;;16.10;34.49
51083;BME280;37131;42.694;23.350;2023-02-21T10:38:57;95532.03;;;16.24;32.33
51083;BME280;37131;42.694;23.350;2023-02-21T10:41:28;95525.63;;;16.58;31.52
51083;BME280;37131;42.694;23.350;2023-02-21T10:44:22;95523.38;;;16.72;29.07
51083;BME280;37131;42.694;23.350;2023-02-21T10:47:12;95511.53;;;16.74;29.57
51083;BME280;37131;42.694;23.350;2023-02-21T10:49:53;95511.72;;;17.21;27.73
51083;BME280;37131;42.694;23.350;2023-02-21T10:52:24;95495.09;;;17.10;27.42
51083;BME280;37131;42.694;23.350;2023-02-21T10:57:43;95494.94;;;17.52;26.12
51083;BME280;37131;42.694;23.350;2023-02-21T11:00:23;95492.78;;;17.34;27.26
51083;BME280;37131;42.694;23.350;2023-02-21T11:02:54;95493.63;;;17.70;26.19
51083;BME280;37131;42.694;23.350;2023-02-21T11:05:21;95484.19;;;17.95;25.81
51083;BME280;37131;42.694;23.350;2023-02-21T11:10:33;95477.56;;;18.03;25.77
51083;BME280;37131;42.694;23.350;2023-02-21T11:13:12;95458.28;;;18.02;25.94
51083;BME280;37131;42.694;23.350;2023-02-21T11:15:38;95467.78;;;18.24;25.48
51083;BME280;37131;42.694;23.350;2023-02-21T11:18:27;95467.00;;;18.13;26.70
51083;BME280;37131;42.694;23.350;2023-02-21T11:20:52;95462.97;;;18.47;25.73
51083;BME280;37131;42.694;23.350;2023-02-21T11:25:44;95441.53;;;18.64;25.45
51083;BME280;37131;42.694;23.350;2023-02-21T11:30:48;95444.69;;;18.71;25.43
51083;BME280;37131;42.694;23.350;2023-02-21T11:33:19;95371.69;;;18.30;24.99
51083;BME280;37131;42.694;23.350;2023-02-21T11:35:47;95441.25;;;18.60;24.72
51083;BME280;37131;42.694;23.350;2023-02-21T11:41:36;95434.66;;;18.63;25.13
51083;BME280;37131;42.694;23.350;2023-02-21T11:46:46;95422.19;;;18.79;25.39
51083;BME280;37131;42.694;23.350;2023-02-21T11:51:45;95412.59;;;18.98;25.12
51083;BME280;37131;42.694;23.350;2023-02-21T11:54:11;95409.13;;;19.08;24.88
51083;BME280;37131;42.694;23.350;2023-02-21T11:59:47;95396.41;;;19.10;25.01
51083;BME280;37131;42.694;23.350;2023-02-21T12:02:20;95374.31;;;19.64;24.37
51083;BME280;37131;42.694;23.350;2023-02-21T12:13:05;95366.66;;;20.65;23.83
51083;BME280;37131;42.694;23.350;2023-02-21T12:26:29;95347.09;;;20.42;23.69
51083;BME280;37131;42.694;23.350;2023-02-21T12:44:21;95317.63;;;22.27;21.72
51083;BME280;37131;42.694;23.350;2023-02-21T12:49:32;95316.25;;;22.57;21.38
51083;BME280;37131;42.694;23.350;2023-02-21T12:54:48;95305.78;;;22.61;22.29
51083;BME280;37131;42.694;23.350;2023-02-21T12:57:26;95300.72;;;22.87;21.25
51083;BME280;37131;42.694;23.350;2023-02-21T13:05:58;95290.16;;;23.50;19.91
51083;BME280;37131;42.694;23.350;2023-02-21T13:08:30;95306.09;;;22.59;21.48
51083;BME280;37131;42.694;23.350;2023-02-21T13:13:33;95298.44;;;22.30;21.67
51083;BME280;37131;42.694;23.350;2023-02-21T13:16:04;95296.00;;;22.20;21.83
51083;BME280;37131;42.694;23.350;2023-02-21T13:18:38;95298.03;;;22.51;21.35
51083;BME280;37131;42.694;23.350;2023-02-21T13:29:31;95282.91;;;21.82;22.33
51083;BME280;37131;42.694;23.350;2023-02-21T13:32:03;95278.38;;;22.52;21.98
51083;BME280;37131;42.694;23.350;2023-02-21T13:34:36;95284.66;;;22.56;21.35
51083;BME280;37131;42.694;23.350;2023-02-21T13:37:05;95278.28;;;22.29;21.56
51083;BME280;37131;42.694;23.350;2023-02-21T13:39:33;95272.41;;;21.90;21.71
51083;BME280;37131;42.694;23.350;2023-02-21T13:42:13;95282.03;;;21.72;22.03
51083;BME280;37131;42.694;23.350;2023-02-21T13:44:46;95287.38;;;21.07;23.00
51083;BME280;37131;42.694;23.350;2023-02-21T13:47:15;95284.56;;;21.50;22.50
51083;BME280;37131;42.694;23.350;2023-02-21T13:57:34;95265.44;;;20.30;23.02
51083;BME280;37131;42.694;23.350;2023-02-21T14:10:47;95272.41;;;19.48;24.36
51083;BME280;37131;42.694;23.350;2023-02-21T14:16:15;95269.75;;;19.19;24.55
51083;BME280;37131;42.694;23.350;2023-02-21T14:19:10;95267.63;;;18.91;23.91
51083;BME280;37131;42.694;23.350;2023-02-21T14:21:59;95272.81;;;18.57;24.34
51083;BME280;37131;42.694;23.350;2023-02-21T14:24:31;95265.50;;;18.44;24.52
51083;BME280;37131;42.694;23.350;2023-02-21T14:29:41;95266.69;;;18.22;24.67
51083;BME280;37131;42.694;23.350;2023-02-21T14:34:51;95260.00;;;18.40;24.48
51083;BME280;37131;42.694;23.350;2023-02-21T14:37:41;95257.41;;;18.30;24.93
51083;BME280;37131;42.694;23.350;2023-02-21T15:05:13;95254.81;;;17.44;25.42
51083;BME280;37131;42.694;23.350;2023-02-21T15:10:21;95250.06;;;17.41;25.57
51083;BME280;37131;42.694;23.350;2023-02-21T15:15:17;95248.22;;;17.41;25.71
51083;BME280;37131;42.694;23.350;2023-02-21T15:17:44;95244.28;;;17.28;25.83
51083;BME280;37131;42.694;23.350;2023-02-21T15:20:18;95251.69;;;17.16;26.64
51083;BME280;37131;42.694;23.350;2023-02-21T15:22:43;95262.75;;;17.23;26.18
51083;BME280;37131;42.694;23.350;2023-02-21T15:32:39;95265.41;;;17.03;26.33
51083;BME280;37131;42.694;23.350;2023-02-21T15:35:09;95266.94;;;16.83;26.32
51083;BME280;37131;42.694;23.350;2023-02-21T15:37:38;95269.84;;;16.92;26.94
51083;BME280;37131;42.694;23.350;2023-02-21T15:40:14;95265.09;;;16.73;26.99
51083;BME280;37131;42.694;23.350;2023-02-21T15:42:41;95278.25;;;16.73;26.44
51083;BME280;37131;42.694;23.350;2023-02-21T15:45:17;95277.97;;;16.70;27.19
51083;BME280;37131;42.694;23.350;2023-02-21T15:47:43;95278.78;;;16.70;26.68
51083;BME280;37131;42.694;23.350;2023-02-21T15:52:40;95286.94;;;16.69;26.95
51083;BME280;37131;42.694;23.350;2023-02-21T15:57:44;95283.50;;;16.53;27.03
51083;BME280;37131;42.694;23.350;2023-02-21T16:03:59;95287.13;;;16.36;27.20
51083;BME280;37131;42.694;23.350;2023-02-21T16:08:35;95287.84;;;16.16;27.83
51083;BME280;37131;42.694;23.350;2023-02-21T16:11:02;95289.88;;;15.99;28.24
51083;BME280;37131;42.694;23.350;2023-02-21T16:13:38;95300.16;;;16.00;28.86
51083;BME280;37131;42.694;23.350;2023-02-21T16:16:05;95290.66;;;15.89;28.55
51083;BME280;37131;42.694;23.350;2023-02-21T16:18:32;95302.19;;;15.83;27.79
51083;BME280;37131;42.694;23.350;2023-02-21T16:21:05;95304.75;;;15.72;28.52
51083;BME280;37131;42.694;23.350;2023-02-21T16:28:27;95312.75;;;15.50;28.83
51083;BME280;37131;42.694;23.350;2023-02-21T16:30:53;95305.84;;;15.39;28.97
51083;BME280;37131;42.694;23.350;2023-02-21T16:33:22;95303.97;;;15.34;28.77
51083;BME280;37131;42.694;23.350;2023-02-21T16:35:47;95310.03;;;15.35;28.59